Time;durP1;ratioP1;P1;durP2;ratioP2;P2;SDS_P1;SDS_P2;PMS_P1;PMS_P2;Temp;Humidity;BMP_temperature;BMP_pressure;BME280_temperature;BME280_humidity;BME280_pressure;Samples;Min_cycle;Max_cycle;Signal;HPM_P1;HPM_P2
2024/02/28 00:03:31;;;;;;;83.50;47.00;;;;;;;8.19;88.13;99765.70;217676;1259;140238;-74
2024/02/28 00:08:36;;;;;;;86.10;48.10;;;;;;;8.20;88.15;99765.11;217428;1256;142007;-74
2024/02/28 00:13:41;;;;;;;77.80;45.40;;;;;;;8.20;88.22;99767.77;217548;1256;139241;-75
2024/02/28 00:18:44;;;;;;;76.90;45.90;;;;;;;8.19;88.12;99772.23;218174;1257;140903;-74
2024/02/28 00:23:49;;;;;;;69.30;44.20;;;;;;;8.19;88.50;99776.00;218117;1257;140210;-75
2024/02/28 00:28:53;;;;;;;85.70;47.20;;;;;;;8.18;88.30;99767.47;217557;1258;140971;-74
2024/02/28 00:33:59;;;;;;;76.20;43.30;;;;;;;8.16;88.32;99779.95;217603;1260;139868;-73
2024/02/28 00:39:05;;;;;;;76.80;45.00;;;;;;;8.15;88.72;99782.20;217889;1259;140149;-74
2024/02/28 00:44:10;;;;;;;80.50;44.70;;;;;;;8.15;88.71;99790.21;217388;1260;141144;-75
2024/02/28 00:49:16;;;;;;;79.40;47.20;;;;;;;8.13;88.60;99800.15;217518;1257;139846;-74
2024/02/28 00:54:23;;;;;;;86.70;50.40;;;;;;;8.10;89.20;99799.96;217648;1261;140972;-74
2024/02/28 00:59:29;;;;;;;72.90;45.00;;;;;;;8.12;89.57;99804.04;218290;1259;140044;-75
2024/02/28 01:04:34;;;;;;;89.10;49.50;;;;;;;8.14;89.73;99806.19;217583;1257;140085;-74
2024/02/28 01:09:38;;;;;;;93.10;51.30;;;;;;;8.17;89.77;99805.76;217530;1260;140711;-74
2024/02/28 01:14:45;;;;;;;87.60;53.40;;;;;;;8.21;90.01;99806.02;217568;1260;140803;-74
2024/02/28 01:19:50;;;;;;;85.80;48.70;;;;;;;8.22;89.98;99802.77;217477;1258;140230;-74
2024/02/28 01:24:54;;;;;;;95.60;48.10;;;;;;;8.22;90.21;99797.80;217494;1260;140618;-74
2024/02/28 01:29:59;;;;;;;88.00;50.40;;;;;;;8.22;90.18;99798.52;217576;1260;140075;-74
2024/02/28 01:35:05;;;;;;;81.60;50.80;;;;;;;8.23;90.41;99800.52;217678;1260;140643;-74
2024/02/28 01:40:13;;;;;;;81.40;48.70;;;;;;;8.24;90.46;99803.41;220250;1256;139827;-75
2024/02/28 01:45:20;;;;;;;78.70;46.80;;;;;;;8.20;90.03;99803.98;220462;1258;140851;-75
2024/02/28 01:50:25;;;;;;;84.00;46.00;;;;;;;8.16;89.99;99803.80;219220;1257;141196;-74
2024/02/28 01:55:30;;;;;;;79.10;43.50;;;;;;;8.17;90.35;99799.05;218604;1256;139674;-74
2024/02/28 02:00:37;;;;;;;76.00;46.10;;;;;;;8.20;90.50;99794.25;217302;1260;140254;-76
2024/02/28 02:05:42;;;;;;;78.80;42.60;;;;;;;8.22;90.18;99792.15;217447;1260;140263;-78
2024/02/28 02:10:47;;;;;;;80.60;46.00;;;;;;;8.24;90.60;99789.56;217485;1260;140417;-75
2024/02/28 02:15:52;;;;;;;79.60;45.80;;;;;;;8.26;90.43;99784.77;217664;1260;139927;-74
2024/02/28 02:21:05;;;;;;;89.20;47.60;;;;;;;8.26;90.53;99790.63;217493;1257;233837;-74
2024/02/28 02:26:09;;;;;;;73.60;46.60;;;;;;;8.25;90.49;99790.00;217469;1256;140528;-73
2024/02/28 02:31:14;;;;;;;72.80;41.60;;;;;;;8.22;90.51;99784.55;217552;1258;139739;-74
2024/02/28 02:36:19;;;;;;;73.50;43.10;;;;;;;8.19;90.09;99785.80;217459;1257;139992;-74
2024/02/28 02:41:23;;;;;;;63.30;38.20;;;;;;;8.13;90.44;99781.56;217539;1260;140624;-73
2024/02/28 02:46:28;;;;;;;74.70;42.60;;;;;;;8.09;90.35;99782.94;217455;1260;140231;-74
2024/02/28 02:51:31;;;;;;;73.70;42.40;;;;;;;8.04;90.33;99777.49;217589;1260;141317;-72
2024/02/28 02:56:35;;;;;;;78.40;43.70;;;;;;;8.01;90.48;99782.87;217703;1260;141472;-73
2024/02/28 03:01:40;;;;;;;72.40;42.10;;;;;;;7.96;90.27;99779.38;218018;1260;140633;-74
2024/02/28 03:06:44;;;;;;;62.90;40.30;;;;;;;7.89;89.99;99779.40;217942;1260;141334;-74
2024/02/28 03:11:48;;;;;;;66.00;38.10;;;;;;;7.82;90.36;99780.70;217509;1260;140693;-77
2024/02/28 03:16:53;;;;;;;76.00;44.40;;;;;;;7.81;90.53;99778.67;217568;1260;141125;-74
2024/02/28 03:21:58;;;;;;;71.10;42.70;;;;;;;7.81;90.67;99780.23;217568;1259;234701;-74
2024/02/28 03:27:03;;;;;;;74.60;45.80;;;;;;;7.82;90.77;99779.02;217480;1258;140690;-75
2024/02/28 03:32:08;;;;;;;110.30;51.30;;;;;;;7.82;90.68;99778.05;217480;1260;140352;-74
2024/02/28 03:37:15;;;;;;;100.00;52.70;;;;;;;7.80;90.84;99780.96;217460;1260;140604;-74
2024/02/28 03:42:20;;;;;;;78.60;46.10;;;;;;;7.76;90.51;99784.88;217979;1257;140818;-75
2024/02/28 03:47:24;;;;;;;126.50;55.00;;;;;;;7.69;90.35;99789.73;219452;1258;140760;-74
2024/02/28 03:52:34;;;;;;;148.80;53.70;;;;;;;7.66;90.72;99787.83;217566;1257;140953;-75
2024/02/28 03:57:38;;;;;;;147.50;58.40;;;;;;;7.67;91.11;99784.48;217410;1260;140684;-75
2024/02/28 04:02:44;;;;;;;104.50;51.50;;;;;;;7.70;91.38;99785.20;217796;1260;141029;-74
2024/02/28 04:07:48;;;;;;;121.00;53.00;;;;;;;7.73;91.90;99787.73;217490;1256;140359;-74
2024/02/28 04:12:53;;;;;;;106.80;50.80;;;;;;;7.74;91.66;99785.81;217510;1258;140012;-74
2024/02/28 04:17:58;;;;;;;158.80;57.40;;;;;;;7.74;91.85;99789.05;217623;1260;153002;-74
2024/02/28 04:23:02;;;;;;;117.20;51.20;;;;;;;7.75;91.98;99796.42;217606;1257;140200;-74
2024/02/28 04:28:13;;;;;;;103.10;49.00;;;;;;;7.78;92.06;99799.64;217642;1260;140004;-74
2024/02/28 04:33:18;;;;;;;108.50;53.50;;;;;;;7.78;91.92;99802.29;217479;1260;142018;-74
2024/02/28 04:38:23;;;;;;;106.40;46.80;;;;;;;7.78;92.06;99809.55;217444;1257;140354;-74
2024/02/28 04:43:29;;;;;;;133.10;54.40;;;;;;;7.77;91.99;99813.36;217302;1257;140262;-74
2024/02/28 04:48:34;;;;;;;128.50;55.40;;;;;;;7.75;92.12;99813.05;217638;1260;139806;-74
2024/02/28 04:53:39;;;;;;;104.00;50.20;;;;;;;7.74;92.17;99817.77;217569;1258;140276;-74
2024/02/28 04:58:44;;;;;;;80.00;44.40;;;;;;;7.76;92.50;99821.48;217527;1260;140959;-74
2024/02/28 05:03:48;;;;;;;82.00;47.00;;;;;;;7.77;92.46;99824.55;217480;1260;139899;-74
2024/02/28 05:08:58;;;;;;;86.30;49.20;;;;;;;7.77;92.81;99827.27;218548;1257;140727;-73
2024/02/28 05:14:03;;;;;;;160.00;60.60;;;;;;;7.79;92.68;99826.79;217564;1260;140852;-73
2024/02/28 05:19:07;;;;;;;87.30;47.40;;;;;;;7.77;92.51;99827.89;217542;1258;151781;-74
2024/02/28 05:24:11;;;;;;;83.80;46.80;;;;;;;7.77;92.80;99833.52;217428;1257;140641;-76
2024/02/28 05:29:15;;;;;;;103.60;47.80;;;;;;;7.76;92.54;99838.76;217583;1259;140015;-74
2024/02/28 05:34:20;;;;;;;88.60;42.80;;;;;;;7.71;92.81;99843.03;217498;1256;140240;-75
2024/02/28 05:39:24;;;;;;;125.30;49.90;;;;;;;7.65;92.49;99850.95;217442;1260;140250;-73
2024/02/28 05:44:28;;;;;;;81.40;43.40;;;;;;;7.65;93.01;99853.39;217525;1257;140154;-73
2024/02/28 05:49:32;;;;;;;95.60;49.40;;;;;;;7.65;93.13;99855.34;217573;1259;140358;-73
2024/02/28 05:54:36;;;;;;;86.90;45.80;;;;;;;7.67;93.40;99865.91;217706;1257;140883;-74
2024/02/28 05:59:40;;;;;;;89.00;45.00;;;;;;;7.70;93.51;99867.45;217646;1260;141450;-74
2024/02/28 06:04:44;;;;;;;81.60;41.40;;;;;;;7.72;93.60;99872.94;217491;1260;140820;-74
2024/02/28 06:09:48;;;;;;;77.40;41.50;;;;;;;7.72;93.56;99878.62;217387;1256;139894;-74
2024/02/28 06:14:52;;;;;;;80.20;42.30;;;;;;;7.72;93.88;99880.17;217621;1257;140261;-77
2024/02/28 06:19:56;;;;;;;80.70;45.80;;;;;;;7.75;93.79;99887.46;217855;1258;140584;-75
2024/02/28 06:25:00;;;;;;;85.20;44.70;;;;;;;7.78;93.76;99895.02;217894;1257;139998;-72
2024/02/28 06:30:04;;;;;;;85.80;45.50;;;;;;;7.81;93.69;99899.32;217758;1257;141168;-73
2024/02/28 06:35:08;;;;;;;96.70;42.30;;;;;;;7.81;93.73;99905.23;217884;1260;140143;-74
2024/02/28 06:40:13;;;;;;;87.10;46.40;;;;;;;7.80;93.96;99907.98;217832;1260;150669;-74
2024/02/28 06:45:17;;;;;;;86.00;45.60;;;;;;;7.83;94.21;99910.30;217575;1259;140025;-75
2024/02/28 06:50:21;;;;;;;86.40;42.40;;;;;;;7.87;94.20;99916.81;217528;1256;140248;-76
2024/02/28 06:55:25;;;;;;;82.40;45.00;;;;;;;7.90;94.16;99916.35;217548;1258;141057;-76
2024/02/28 07:00:29;;;;;;;76.50;41.40;;;;;;;7.89;94.08;99922.31;217610;1257;139791;-74
2024/02/28 07:05:33;;;;;;;76.60;44.90;;;;;;;7.90;94.24;99925.54;219177;1255;139526;-75
2024/02/28 07:10:42;;;;;;;73.70;39.40;;;;;;;7.92;94.17;99931.93;217744;1257;140658;-74
2024/02/28 07:15:48;;;;;;;83.00;44.00;;;;;;;7.97;94.20;99930.25;217525;1260;141176;-74
2024/02/28 07:20:56;;;;;;;71.20;41.40;;;;;;;8.03;94.17;99935.94;219212;1255;141352;-75
2024/02/28 07:26:02;;;;;;;72.90;38.90;;;;;;;8.08;94.46;99938.94;217342;1260;140942;-74
2024/02/28 07:31:22;;;;;;;69.40;36.50;;;;;;;8.11;94.33;99937.78;216917;1257;931994;-76
2024/02/28 07:36:28;;;;;;;58.70;34.70;;;;;;;8.16;94.40;99944.66;217537;1259;140528;-75
2024/02/28 07:41:33;;;;;;;64.60;34.70;;;;;;;8.20;94.33;99948.19;217735;1258;140562;-75
2024/02/28 07:46:40;;;;;;;67.80;37.40;;;;;;;8.28;94.42;99951.39;217593;1256;140480;-75
2024/02/28 07:51:45;;;;;;;65.90;35.60;;;;;;;8.34;94.57;99953.00;217569;1256;139747;-74
2024/02/28 07:56:50;;;;;;;57.40;32.30;;;;;;;8.39;94.58;99954.20;217885;1255;141323;-76
2024/02/28 08:01:55;;;;;;;66.70;35.80;;;;;;;8.46;94.50;99958.70;217205;1255;142336;-76
2024/02/28 08:07:00;;;;;;;53.00;29.30;;;;;;;8.54;94.44;99959.32;217760;1257;139848;-75
2024/02/28 08:12:04;;;;;;;53.50;30.00;;;;;;;8.61;94.60;99958.48;217432;1256;140724;-77
2024/02/28 08:17:09;;;;;;;48.70;28.40;;;;;;;8.72;94.88;99965.98;217421;1260;141972;-77
2024/02/28 08:22:13;;;;;;;45.80;27.30;;;;;;;8.80;94.48;99970.80;217447;1257;140754;-77
2024/02/28 08:27:20;;;;;;;47.60;27.40;;;;;;;8.86;94.69;99965.25;217666;1257;140779;-76
2024/02/28 08:32:25;;;;;;;48.10;27.60;;;;;;;8.94;94.50;99967.55;217453;1257;140425;-77
2024/02/28 08:37:30;;;;;;;43.10;26.50;;;;;;;9.01;94.53;99969.00;217194;1256;141621;-78
2024/02/28 08:42:35;;;;;;;43.60;28.20;;;;;;;9.04;94.29;99975.77;217657;1257;141183;-76
2024/02/28 08:47:41;;;;;;;39.00;25.10;;;;;;;9.07;94.10;99977.19;217721;1257;141006;-77
2024/02/28 08:52:45;;;;;;;48.50;26.50;;;;;;;9.05;93.84;99977.27;218415;1257;141048;-75
2024/02/28 08:57:50;;;;;;;39.70;25.90;;;;;;;9.07;93.95;99979.95;217905;1256;140937;-77
2024/02/28 09:02:54;;;;;;;32.50;23.30;;;;;;;9.07;93.88;99981.06;219905;1256;140413;-74
2024/02/28 09:08:29;;;;;;;37.50;24.10;;;;;;;9.04;93.59;99986.52;217649;1259;141083;-75
2024/02/28 09:13:35;;;;;;;38.60;24.50;;;;;;;9.07;93.87;99986.05;217688;1259;139859;-74
2024/02/28 09:18:40;;;;;;;41.90;24.20;;;;;;;9.05;93.62;99986.97;217596;1259;143944;-76
2024/02/28 09:23:44;;;;;;;28.10;18.30;;;;;;;9.12;93.87;99989.73;217451;1256;141204;-76
2024/02/28 09:28:49;;;;;;;35.70;23.80;;;;;;;9.18;93.84;99989.95;217708;1255;140964;-76
2024/02/28 09:33:53;;;;;;;31.60;19.60;;;;;;;9.24;93.80;99988.91;217543;1256;140840;-75
2024/02/28 09:38:58;;;;;;;21.90;16.30;;;;;;;9.31;93.97;99994.45;217648;1260;142925;-76
2024/02/28 09:44:03;;;;;;;40.40;24.40;;;;;;;9.34;93.72;99999.21;217460;1256;140307;-76
2024/02/28 09:49:09;;;;;;;36.30;19.70;;;;;;;9.38;93.80;100000.73;217546;1256;140571;-74
2024/02/28 09:54:14;;;;;;;35.00;21.30;;;;;;;9.39;93.57;100002.85;217615;1257;141119;-75
2024/02/28 09:59:21;;;;;;;24.40;15.10;;;;;;;9.40;93.57;100004.80;217585;1255;141795;-76
2024/02/28 10:04:33;;;;;;;33.00;21.40;;;;;;;9.36;93.14;100010.41;217521;1255;141598;-76
2024/02/28 10:09:37;;;;;;;32.10;19.80;;;;;;;9.34;93.21;100014.81;217670;1256;140899;-76
2024/02/28 10:14:41;;;;;;;38.40;23.00;;;;;;;9.23;92.85;100018.46;217441;1255;140740;-75
2024/02/28 10:19:47;;;;;;;40.50;23.90;;;;;;;9.18;92.96;100024.25;217966;1257;141711;-74
2024/02/28 10:24:58;;;;;;;38.60;23.10;;;;;;;9.12;92.90;100025.42;217734;1256;139811;-76
2024/02/28 10:30:06;;;;;;;39.00;25.10;;;;;;;9.06;93.02;100035.28;217545;1260;140434;-74
2024/02/28 10:35:12;;;;;;;31.70;19.50;;;;;;;9.07;93.28;100045.05;218822;1255;140768;-74
2024/02/28 10:40:17;;;;;;;41.00;23.40;;;;;;;9.03;93.12;100050.35;217666;1256;140145;-74
2024/02/28 10:45:25;;;;;;;39.90;22.60;;;;;;;9.03;93.28;100052.27;218533;1255;141205;-75
2024/02/28 10:50:51;;;;;;;36.70;19.80;;;;;;;9.07;93.37;100053.35;217634;1256;140958;-75
2024/02/28 10:56:02;;;;;;;44.20;20.90;;;;;;;9.10;93.21;100055.67;217364;1256;140783;-77
2024/02/28 11:01:07;;;;;;;35.30;19.10;;;;;;;9.09;93.16;100050.19;218158;1256;139824;-76
2024/02/28 11:06:21;;;;;;;32.10;18.80;;;;;;;9.07;92.97;100052.49;219787;1255;142571;-77
2024/02/28 11:11:31;;;;;;;28.00;15.80;;;;;;;9.04;92.73;100061.76;218434;1255;141253;-76
2024/02/28 11:16:42;;;;;;;28.00;18.60;;;;;;;8.97;92.44;100062.75;217622;1255;141554;-75
2024/02/28 11:21:54;;;;;;;37.10;17.10;;;;;;;8.88;92.65;100058.55;217603;1255;140745;-75
2024/02/28 11:26:59;;;;;;;31.50;16.30;;;;;;;8.89;93.03;100068.41;218219;1256;140542;-76
2024/02/28 11:32:05;;;;;;;34.40;17.60;;;;;;;8.88;92.98;100073.40;217569;1255;140211;-76
2024/02/28 11:37:11;;;;;;;26.00;15.40;;;;;;;8.89;93.03;100071.23;217435;1255;141153;-76
2024/02/28 11:42:16;;;;;;;31.40;17.20;;;;;;;8.90;93.05;100073.23;217337;1256;140882;-76
2024/02/28 11:47:20;;;;;;;28.30;14.50;;;;;;;8.87;92.77;100081.18;217641;1254;142287;-75
2024/02/28 11:52:25;;;;;;;30.20;14.50;;;;;;;8.84;92.84;100081.80;217340;1260;140409;-75
2024/02/28 11:57:33;;;;;;;23.30;13.40;;;;;;;8.85;93.01;100084.48;217471;1256;140411;-76
2024/02/28 12:02:38;;;;;;;33.40;16.40;;;;;;;8.89;92.90;100083.73;218061;1256;140375;-76
2024/02/28 12:07:45;;;;;;;26.50;15.50;;;;;;;8.92;92.94;100085.31;217611;1256;141028;-74
2024/02/28 12:12:49;;;;;;;27.00;14.80;;;;;;;8.91;93.03;100091.45;217572;1255;141743;-75
2024/02/28 12:17:53;;;;;;;20.60;12.70;;;;;;;8.94;93.01;100081.30;217992;1255;140764;-75
2024/02/28 12:22:57;;;;;;;25.90;10.90;;;;;;;8.99;92.79;100084.41;217755;1256;140393;-76
2024/02/28 12:28:01;;;;;;;21.40;13.30;;;;;;;8.99;92.79;100084.26;218699;1255;141219;-76
2024/02/28 12:33:05;;;;;;;29.20;14.00;;;;;;;9.00;92.78;100086.66;219283;1255;141349;-75
2024/02/28 12:38:10;;;;;;;20.20;12.70;;;;;;;8.98;92.66;100084.79;217565;1256;140187;-75
2024/02/28 12:43:14;;;;;;;23.60;13.80;;;;;;;8.99;92.82;100090.84;218120;1255;141331;-76
2024/02/28 12:48:18;;;;;;;19.30;13.10;;;;;;;9.00;92.76;100095.01;217422;1260;141265;-76
2024/02/28 12:53:22;;;;;;;28.60;16.10;;;;;;;8.96;92.74;100096.05;220471;1255;140674;-77
2024/02/28 12:58:25;;;;;;;23.40;12.70;;;;;;;8.96;92.82;100098.27;218285;1255;141296;-77
2024/02/28 13:03:29;;;;;;;28.10;16.00;;;;;;;8.94;92.84;100103.67;217732;1256;141252;-76
2024/02/28 13:08:34;;;;;;;23.50;13.80;;;;;;;8.89;92.79;100106.64;217497;1259;141624;-76
2024/02/28 13:13:42;;;;;;;19.00;14.20;;;;;;;8.88;92.89;100100.02;217651;1255;140782;-74
2024/02/28 13:18:47;;;;;;;31.30;16.50;;;;;;;8.90;92.96;100105.83;217521;1255;140428;-74
2024/02/28 13:23:51;;;;;;;22.00;14.00;;;;;;;8.91;93.07;100103.85;217539;1255;141594;-76
2024/02/28 13:28:56;;;;;;;22.50;16.00;;;;;;;8.90;92.91;100105.67;217636;1258;139635;-76
2024/02/28 13:34:03;;;;;;;19.60;11.90;;;;;;;8.94;93.26;100109.69;217631;1256;140318;-75
2024/02/28 13:39:07;;;;;;;;;;;;;;;8.94;92.90;100112.83;217470;1258;141803;-75
2024/02/28 13:44:13;;;;;;;17.70;12.20;;;;;;;8.89;92.70;100113.73;217953;1256;126446;-74
2024/02/28 13:49:20;;;;;;;18.00;12.20;;;;;;;8.89;92.80;100116.83;217678;1255;140139;-73
2024/02/28 13:54:24;;;;;;;13.70;11.70;;;;;;;8.94;92.95;100116.88;217633;1259;141640;-76
2024/02/28 13:59:28;;;;;;;18.90;11.80;;;;;;;8.92;92.80;100118.45;217909;1258;140277;-77
2024/02/28 14:04:32;;;;;;;17.80;11.90;;;;;;;8.91;92.97;100119.97;217607;1255;140375;-76
2024/02/28 14:09:36;;;;;;;13.90;10.90;;;;;;;8.98;92.94;100119.20;218188;1255;140434;-76
2024/02/28 14:14:44;;;;;;;;;;;;;;;9.01;93.13;100131.81;217899;1258;139930;-75
2024/02/28 14:19:48;;;;;;;18.90;9.70;;;;;;;8.92;92.85;100137.88;218103;1259;126489;-74
2024/02/28 14:24:52;;;;;;;16.00;12.10;;;;;;;8.89;92.75;100141.08;217593;1256;140606;-74
2024/02/28 14:29:56;;;;;;;17.40;10.70;;;;;;;8.88;92.66;100153.45;217603;1256;139914;-76
2024/02/28 14:35:00;;;;;;;18.60;12.70;;;;;;;8.82;92.63;100156.53;217715;1255;141660;-76
2024/02/28 14:40:09;;;;;;;16.30;10.90;;;;;;;8.75;92.40;100156.64;217802;1258;141349;-75
2024/02/28 14:45:17;;;;;;;16.70;11.20;;;;;;;8.69;92.66;100155.84;219212;1255;140134;-73
2024/02/28 14:50:21;;;;;;;19.20;12.00;;;;;;;8.61;92.42;100160.37;217857;1258;140865;-76
2024/02/28 14:55:26;;;;;;;21.60;13.00;;;;;;;8.55;92.44;100164.09;217837;1256;140784;-76
2024/02/28 15:00:30;;;;;;;21.30;13.00;;;;;;;8.49;92.45;100166.12;218188;1256;140920;-76
2024/02/28 15:05:33;;;;;;;18.90;13.20;;;;;;;8.40;92.33;100170.85;217724;1255;141398;-76
2024/02/28 15:10:37;;;;;;;17.30;12.50;;;;;;;8.34;92.27;100174.70;217578;1256;139991;-77
2024/02/28 15:15:41;;;;;;;21.60;14.40;;;;;;;8.33;92.71;100182.59;217977;1256;140660;-75
2024/02/28 15:20:48;;;;;;;23.40;14.40;;;;;;;8.31;92.53;100184.26;218059;1256;140838;-74
2024/02/28 15:25:54;;;;;;;20.20;14.90;;;;;;;8.28;92.68;100186.09;217857;1256;140123;-75
2024/02/28 15:30:58;;;;;;;24.10;16.30;;;;;;;8.24;92.83;100191.30;218125;1256;140951;-79
2024/02/28 15:36:04;;;;;;;22.10;15.30;;;;;;;8.21;92.95;100194.30;217745;1256;140870;-75
2024/02/28 15:41:08;;;;;;;27.70;14.20;;;;;;;8.19;92.90;100191.85;217747;1256;140519;-77
2024/02/28 15:46:14;;;;;;;22.20;14.20;;;;;;;8.14;92.80;100197.66;218527;1256;141013;-78
2024/02/28 15:51:19;;;;;;;24.20;13.60;;;;;;;8.11;92.99;100202.36;218076;1256;140670;-76
2024/02/28 15:56:24;;;;;;;19.80;14.00;;;;;;;8.10;93.08;100197.30;217581;1256;140109;-75
2024/02/28 16:01:29;;;;;;;22.50;14.40;;;;;;;8.07;92.95;100210.25;217833;1256;151764;-75
2024/02/28 16:06:34;;;;;;;30.00;15.30;;;;;;;8.05;93.03;100210.33;218602;1255;141081;-76
2024/02/28 16:11:43;;;;;;;21.50;16.00;;;;;;;8.02;93.06;100215.27;217830;1255;140989;-75
2024/02/28 16:16:48;;;;;;;22.10;15.40;;;;;;;7.99;93.17;100220.17;217906;1257;140245;-77
2024/02/28 16:21:53;;;;;;;24.10;15.70;;;;;;;7.95;93.11;100225.41;219362;1258;140793;-76
2024/02/28 16:27:02;;;;;;;23.20;12.70;;;;;;;7.95;93.09;100226.73;218259;1258;140586;-76
2024/02/28 16:32:07;;;;;;;20.70;14.80;;;;;;;7.94;93.34;100227.35;218761;1256;140266;-77
2024/02/28 16:37:10;;;;;;;20.30;13.10;;;;;;;7.93;93.07;100241.04;219387;1255;139577;-75
2024/02/28 16:42:15;;;;;;;19.60;14.40;;;;;;;7.89;93.26;100246.55;219057;1256;140026;-75
2024/02/28 16:47:20;;;;;;;23.40;15.50;;;;;;;7.89;93.31;100253.61;217866;1256;140457;-74
2024/02/28 16:52:26;;;;;;;18.90;13.50;;;;;;;7.88;93.12;100263.82;218574;1256;140162;-74
2024/02/28 16:57:30;;;;;;;24.80;14.80;;;;;;;7.85;93.36;100262.99;218181;1257;139988;-74
2024/02/28 17:02:34;;;;;;;25.70;15.90;;;;;;;7.81;93.62;100265.11;217829;1259;140479;-75
2024/02/28 17:07:38;;;;;;;23.70;16.40;;;;;;;7.77;93.50;100271.89;217778;1255;140629;-75
2024/02/28 17:12:43;;;;;;;23.40;15.50;;;;;;;7.76;93.30;100274.01;218119;1256;141087;-77
2024/02/28 17:17:48;;;;;;;18.30;13.60;;;;;;;7.71;93.27;100279.55;217768;1256;140668;-74
2024/02/28 17:22:52;;;;;;;22.20;15.10;;;;;;;7.67;93.38;100283.21;218085;1257;141790;-74
2024/02/28 17:27:57;;;;;;;27.90;15.80;;;;;;;7.63;93.62;100288.90;217961;1255;140003;-74
2024/02/28 17:33:01;;;;;;;25.30;16.80;;;;;;;7.60;93.83;100286.45;217904;1256;139357;-73
2024/02/28 17:38:06;;;;;;;28.10;16.30;;;;;;;7.57;93.78;100292.08;217841;1256;140420;-74
2024/02/28 17:43:11;;;;;;;33.50;19.90;;;;;;;7.57;94.02;100297.27;218750;1259;230768;-75
2024/02/28 17:48:17;;;;;;;34.00;21.40;;;;;;;7.56;94.22;100295.10;218069;1258;141266;-74
2024/02/28 17:53:23;;;;;;;32.30;19.40;;;;;;;7.55;94.26;100287.92;217839;1257;140484;-73
2024/02/28 17:58:29;;;;;;;32.90;19.00;;;;;;;7.56;94.43;100291.52;217749;1259;140524;-74
2024/02/28 18:03:33;;;;;;;32.40;19.90;;;;;;;7.56;94.32;100292.77;217797;1257;141329;-74
2024/02/28 18:08:38;;;;;;;32.70;19.20;;;;;;;7.55;94.56;100293.17;217411;1259;140728;-76
2024/02/28 18:13:43;;;;;;;39.90;24.80;;;;;;;7.51;94.53;100297.65;217646;1258;141013;-74
2024/02/28 18:18:48;;;;;;;33.10;21.30;;;;;;;7.50;94.41;100304.88;218742;1258;140584;-74
2024/02/28 18:23:52;;;;;;;32.30;18.90;;;;;;;7.47;94.38;100303.35;217556;1256;142130;-76
2024/02/28 18:28:57;;;;;;;38.70;24.40;;;;;;;7.50;94.59;100305.08;217487;1256;140545;-76
2024/02/28 18:34:01;;;;;;;33.50;19.50;;;;;;;7.52;94.34;100307.48;220425;1257;141391;-75
2024/02/28 18:39:06;;;;;;;34.00;21.30;;;;;;;7.52;94.63;100312.27;219457;1260;140576;-75
2024/02/28 18:44:13;;;;;;;54.50;30.00;;;;;;;7.54;94.76;100315.01;218708;1256;141113;-76
2024/02/28 18:49:18;;;;;;;61.50;35.30;;;;;;;7.57;94.50;100316.69;217615;1256;140563;-75
2024/02/28 18:54:23;;;;;;;64.50;39.50;;;;;;;7.58;94.80;100317.42;217485;1256;139994;-78
2024/02/28 18:59:28;;;;;;;63.40;39.50;;;;;;;7.58;94.47;100318.36;217527;1260;140586;-76
2024/02/28 19:04:35;;;;;;;53.80;30.30;;;;;;;7.57;94.79;100322.33;217360;1260;140195;-75
2024/02/28 19:09:39;;;;;;;42.80;27.30;;;;;;;7.57;94.86;100321.87;217416;1256;141482;-76
2024/02/28 19:14:43;;;;;;;39.90;25.40;;;;;;;7.56;94.93;100327.76;217718;1256;142268;-75
2024/02/28 19:19:47;;;;;;;51.10;25.80;;;;;;;7.53;94.76;100328.89;217668;1260;140095;-76
2024/02/28 19:24:51;;;;;;;52.80;34.10;;;;;;;7.48;94.89;100331.30;217459;1259;153251;-75
2024/02/28 19:29:55;;;;;;;55.00;33.40;;;;;;;7.47;95.11;100338.00;217574;1259;141117;-76
2024/02/28 19:34:59;;;;;;;58.40;35.00;;;;;;;7.49;95.13;100339.08;217086;1261;329338;-75
2024/02/28 19:40:08;;;;;;;59.20;30.40;;;;;;;7.47;95.33;100345.10;217653;1258;139788;-75
2024/02/28 19:45:12;;;;;;;45.20;29.80;;;;;;;7.46;94.96;100349.42;217530;1261;141324;-75
2024/02/28 19:50:15;;;;;;;43.50;26.40;;;;;;;7.48;95.30;100349.88;217490;1261;140112;-74
2024/02/28 19:55:24;;;;;;;41.50;25.70;;;;;;;7.50;95.25;100353.92;218601;1259;141129;-78
2024/02/28 20:00:31;;;;;;;50.70;25.60;;;;;;;7.49;95.26;100358.12;217376;1259;139870;-76
2024/02/28 20:05:36;;;;;;;49.00;24.30;;;;;;;7.48;95.33;100360.04;217984;1257;140590;-76
2024/02/28 20:10:41;;;;;;;44.30;25.50;;;;;;;7.47;95.24;100362.04;218266;1257;140095;-75
2024/02/28 20:15:45;;;;;;;45.50;26.30;;;;;;;7.47;95.52;100361.46;217623;1259;140932;-75
2024/02/28 20:20:50;;;;;;;49.30;24.30;;;;;;;7.45;95.15;100361.91;218046;1260;140039;-76
2024/02/28 20:25:57;;;;;;;;;;;;;;;7.42;95.22;100371.33;217971;1259;140452;-75
2024/02/28 20:31:02;;;;;;;23.10;13.40;;;;;;;7.38;95.53;100375.63;218086;1260;127252;-75
2024/02/28 20:36:08;;;;;;;15.40;10.20;;;;;;;7.35;95.31;100377.29;217564;1257;140709;-75
2024/02/28 20:41:12;;;;;;;16.10;10.70;;;;;;;7.31;95.62;100375.09;217534;1261;140767;-74
2024/02/28 20:46:31;;;;;;;13.50;9.80;;;;;;;7.30;95.78;100378.52;217595;1260;139993;-76
2024/02/28 20:51:44;;;;;;;14.20;9.00;;;;;;;7.28;95.28;100384.71;217638;1256;139903;-75
2024/02/28 20:56:50;;;;;;;16.80;9.80;;;;;;;7.25;95.71;100389.05;217969;1256;140287;-75
2024/02/28 21:02:14;;;;;;;14.70;9.60;;;;;;;7.22;95.75;100390.46;217658;1260;139606;-74
2024/02/28 21:07:17;;;;;;;21.20;10.40;;;;;;;7.21;95.50;100393.44;217650;1256;141124;-74
2024/02/28 21:12:24;;;;;;;15.70;11.70;;;;;;;7.18;95.52;100398.35;217686;1256;140518;-75
2024/02/28 21:17:30;;;;;;;14.60;10.50;;;;;;;7.17;95.82;100397.70;217583;1260;141124;-75
2024/02/28 21:22:37;;;;;;;19.50;10.00;;;;;;;7.15;95.87;100402.70;217490;1260;139842;-76
2024/02/28 21:27:41;;;;;;;17.20;13.50;;;;;;;7.12;95.53;100401.58;217567;1258;140572;-75
2024/02/28 21:32:45;;;;;;;31.20;16.80;;;;;;;7.10;95.95;100398.06;217587;1260;141568;-75
2024/02/28 21:37:50;;;;;;;20.50;13.90;;;;;;;7.10;96.03;100400.39;217788;1260;141680;-75
2024/02/28 21:42:56;;;;;;;38.20;17.50;;;;;;;7.10;96.02;100401.61;217629;1259;141013;-76
2024/02/28 21:48:00;;;;;;;29.50;16.40;;;;;;;7.09;96.40;100407.27;217559;1258;140283;-75
2024/02/28 21:53:05;;;;;;;24.80;16.20;;;;;;;7.10;96.24;100407.88;217574;1260;140269;-75
2024/02/28 21:58:09;;;;;;;25.70;15.70;;;;;;;7.09;96.11;100408.66;218694;1257;141066;-75
2024/02/28 22:03:14;;;;;;;25.50;15.30;;;;;;;7.07;96.01;100408.04;217697;1257;140123;-75
2024/02/28 22:08:18;;;;;;;34.20;17.30;;;;;;;7.04;95.62;100408.46;219071;1259;139692;-76
2024/02/28 22:13:24;;;;;;;19.60;11.90;;;;;;;6.99;95.91;100412.98;220473;1257;141128;-76
2024/02/28 22:18:28;;;;;;;30.80;14.00;;;;;;;6.95;95.76;100416.10;217477;1259;140452;-76
2024/02/28 22:23:31;;;;;;;21.70;12.60;;;;;;;6.94;95.91;100417.67;217566;1257;140295;-75
2024/02/28 22:28:37;;;;;;;19.30;13.60;;;;;;;6.91;95.84;100424.59;217509;1258;140460;-75
2024/02/28 22:33:41;;;;;;;20.90;12.70;;;;;;;6.89;96.09;100426.77;217465;1257;142264;-77
2024/02/28 22:38:46;;;;;;;18.00;12.70;;;;;;;6.88;95.99;100429.91;217508;1260;140821;-75
2024/02/28 22:43:51;;;;;;;23.60;12.10;;;;;;;6.87;95.99;100432.59;218351;1258;141043;-74
2024/02/28 22:48:57;;;;;;;17.80;11.20;;;;;;;6.85;96.06;100428.37;217520;1260;141266;-75
2024/02/28 22:54:01;;;;;;;22.30;11.20;;;;;;;6.81;96.11;100429.08;217442;1256;140375;-74
2024/02/28 22:59:05;;;;;;;19.20;11.40;;;;;;;6.77;96.11;100431.36;217566;1255;140183;-74